sensor_id;sensor_type;location;lat;lon;timestamp;P1;durP1;ratioP1;P2;durP2;ratioP2
7501;SDS011;3792;47.740;7.606;2023-04-03T00:00:10;5.10;;;4.70;;
7501;SDS011;3792;47.740;7.606;2023-04-03T00:02:38;5.33;;;4.83;;
7501;SDS011;3792;47.740;7.606;2023-04-03T00:05:06;4.87;;;4.47;;
7501;SDS011;3792;47.740;7.606;2023-04-03T00:07:33;4.60;;;4.20;;
7501;SDS011;3792;47.740;7.606;2023-04-03T00:10:00;5.67;;;4.63;;
7501;SDS011;3792;47.740;7.606;2023-04-03T00:12:28;4.00;;;3.67;;
7501;SDS011;3792;47.740;7.606;2023-04-03T00:14:55;4.10;;;3.70;;
7501;SDS011;3792;47.740;7.606;2023-04-03T00:17:22;4.60;;;3.77;;
7501;SDS011;3792;47.740;7.606;2023-04-03T00:19:49;5.00;;;4.17;;
7501;SDS011;3792;47.740;7.606;2023-04-03T00:22:16;4.87;;;4.23;;
7501;SDS011;3792;47.740;7.606;2023-04-03T00:24:43;4.70;;;4.30;;
7501;SDS011;3792;47.740;7.606;2023-04-03T00:27:10;4.57;;;4.17;;
7501;SDS011;3792;47.740;7.606;2023-04-03T00:29:39;5.13;;;4.17;;
7501;SDS011;3792;47.740;7.606;2023-04-03T00:32:06;4.43;;;3.83;;
7501;SDS011;3792;47.740;7.606;2023-04-03T00:34:33;5.47;;;3.60;;
7501;SDS011;3792;47.740;7.606;2023-04-03T00:37:00;4.40;;;4.00;;
7501;SDS011;3792;47.740;7.606;2023-04-03T00:39:27;4.77;;;3.97;;
7501;SDS011;3792;47.740;7.606;2023-04-03T00:41:54;3.90;;;3.60;;
7501;SDS011;3792;47.740;7.606;2023-04-03T00:44:21;5.03;;;4.03;;
7501;SDS011;3792;47.740;7.606;2023-04-03T00:47:12;3.90;;;3.60;;
7501;SDS011;3792;47.740;7.606;2023-04-03T00:49:42;4.77;;;3.70;;
7501;SDS011;3792;47.740;7.606;2023-04-03T00:52:11;4.17;;;3.80;;
7501;SDS011;3792;47.740;7.606;2023-04-03T00:54:41;5.10;;;3.87;;
7501;SDS011;3792;47.740;7.606;2023-04-03T00:57:09;4.23;;;3.83;;
7501;SDS011;3792;47.740;7.606;2023-04-03T00:59:38;4.30;;;3.90;;
7501;SDS011;3792;47.740;7.606;2023-04-03T01:02:09;7.30;;;3.87;;
7501;SDS011;3792;47.740;7.606;2023-04-03T01:04:38;4.60;;;3.77;;
7501;SDS011;3792;47.740;7.606;2023-04-03T01:07:08;3.90;;;3.40;;
7501;SDS011;3792;47.740;7.606;2023-04-03T01:09:37;3.73;;;3.40;;
7501;SDS011;3792;47.740;7.606;2023-04-03T01:12:14;4.13;;;3.73;;
7501;SDS011;3792;47.740;7.606;2023-04-03T01:14:42;3.87;;;3.53;;
7501;SDS011;3792;47.740;7.606;2023-04-03T01:17:23;4.40;;;4.00;;
7501;SDS011;3792;47.740;7.606;2023-04-03T01:20:01;4.40;;;4.03;;
7501;SDS011;3792;47.740;7.606;2023-04-03T01:22:51;4.30;;;3.50;;
7501;SDS011;3792;47.740;7.606;2023-04-03T01:25:25;4.17;;;3.87;;
7501;SDS011;3792;47.740;7.606;2023-04-03T01:27:53;5.00;;;3.80;;
7501;SDS011;3792;47.740;7.606;2023-04-03T01:30:21;4.27;;;3.87;;
7501;SDS011;3792;47.740;7.606;2023-04-03T01:32:55;4.57;;;4.10;;
7501;SDS011;3792;47.740;7.606;2023-04-03T01:35:22;3.93;;;3.63;;
7501;SDS011;3792;47.740;7.606;2023-04-03T01:37:49;6.17;;;4.63;;
7501;SDS011;3792;47.740;7.606;2023-04-03T01:40:16;4.77;;;3.80;;
7501;SDS011;3792;47.740;7.606;2023-04-03T01:42:44;4.00;;;3.57;;
7501;SDS011;3792;47.740;7.606;2023-04-03T01:45:11;4.10;;;3.70;;
7501;SDS011;3792;47.740;7.606;2023-04-03T01:47:38;3.73;;;3.20;;
7501;SDS011;3792;47.740;7.606;2023-04-03T01:50:07;5.03;;;4.00;;
7501;SDS011;3792;47.740;7.606;2023-04-03T01:52:34;4.07;;;3.67;;
7501;SDS011;3792;47.740;7.606;2023-04-03T01:55:01;4.23;;;3.53;;
7501;SDS011;3792;47.740;7.606;2023-04-03T01:57:28;3.77;;;3.47;;
7501;SDS011;3792;47.740;7.606;2023-04-03T01:59:55;5.03;;;3.57;;
7501;SDS011;3792;47.740;7.606;2023-04-03T02:02:22;3.83;;;3.50;;
7501;SDS011;3792;47.740;7.606;2023-04-03T02:04:49;3.93;;;3.30;;
7501;SDS011;3792;47.740;7.606;2023-04-03T02:07:18;3.90;;;3.53;;
7501;SDS011;3792;47.740;7.606;2023-04-03T02:09:45;3.80;;;3.20;;
7501;SDS011;3792;47.740;7.606;2023-04-03T02:12:12;3.37;;;3.07;;
7501;SDS011;3792;47.740;7.606;2023-04-03T02:14:39;3.43;;;3.13;;
7501;SDS011;3792;47.740;7.606;2023-04-03T02:17:06;3.57;;;3.27;;
7501;SDS011;3792;47.740;7.606;2023-04-03T02:19:33;3.57;;;3.27;;
7501;SDS011;3792;47.740;7.606;2023-04-03T02:22:01;3.70;;;3.40;;
7501;SDS011;3792;47.740;7.606;2023-04-03T02:24:29;4.53;;;3.17;;
7501;SDS011;3792;47.740;7.606;2023-04-03T02:26:57;4.03;;;3.63;;
7501;SDS011;3792;47.740;7.606;2023-04-03T02:29:24;4.03;;;3.20;;
7501;SDS011;3792;47.740;7.606;2023-04-03T02:31:51;5.90;;;3.20;;
7501;SDS011;3792;47.740;7.606;2023-04-03T02:34:18;3.50;;;3.20;;
7501;SDS011;3792;47.740;7.606;2023-04-03T02:36:45;3.40;;;3.10;;
7501;SDS011;3792;47.740;7.606;2023-04-03T02:39:12;3.37;;;2.60;;
7501;SDS011;3792;47.740;7.606;2023-04-03T02:41:41;3.50;;;3.20;;
7501;SDS011;3792;47.740;7.606;2023-04-03T02:44:11;3.57;;;3.27;;
7501;SDS011;3792;47.740;7.606;2023-04-03T02:46:39;4.93;;;3.63;;
7501;SDS011;3792;47.740;7.606;2023-04-03T02:49:06;3.00;;;2.80;;
7501;SDS011;3792;47.740;7.606;2023-04-03T02:51:33;4.80;;;3.33;;
7501;SDS011;3792;47.740;7.606;2023-04-03T02:54:00;3.30;;;3.00;;
7501;SDS011;3792;47.740;7.606;2023-04-03T02:56:27;3.37;;;3.07;;
7501;SDS011;3792;47.740;7.606;2023-04-03T02:58:56;2.90;;;2.70;;
7501;SDS011;3792;47.740;7.606;2023-04-03T03:01:23;5.57;;;3.07;;
7501;SDS011;3792;47.740;7.606;2023-04-03T03:03:52;3.07;;;2.87;;
7501;SDS011;3792;47.740;7.606;2023-04-03T03:06:19;3.80;;;3.50;;
7501;SDS011;3792;47.740;7.606;2023-04-03T03:08:46;3.77;;;3.17;;
7501;SDS011;3792;47.740;7.606;2023-04-03T03:11:13;3.50;;;3.23;;
7501;SDS011;3792;47.740;7.606;2023-04-03T03:13:40;3.50;;;3.03;;
7501;SDS011;3792;47.740;7.606;2023-04-03T03:16:08;3.20;;;3.00;;
7501;SDS011;3792;47.740;7.606;2023-04-03T03:18:35;4.97;;;3.33;;
7501;SDS011;3792;47.740;7.606;2023-04-03T03:21:02;4.20;;;2.97;;
7501;SDS011;3792;47.740;7.606;2023-04-03T03:23:30;4.43;;;2.57;;
7501;SDS011;3792;47.740;7.606;2023-04-03T03:25:58;3.60;;;3.20;;
7501;SDS011;3792;47.740;7.606;2023-04-03T03:28:27;3.07;;;2.87;;
7501;SDS011;3792;47.740;7.606;2023-04-03T03:30:54;2.83;;;2.63;;
7501;SDS011;3792;47.740;7.606;2023-04-03T03:33:22;4.53;;;2.70;;
7501;SDS011;3792;47.740;7.606;2023-04-03T03:35:50;2.80;;;2.60;;
7501;SDS011;3792;47.740;7.606;2023-04-03T03:38:18;4.27;;;3.00;;
7501;SDS011;3792;47.740;7.606;2023-04-03T03:40:46;3.17;;;2.87;;
7501;SDS011;3792;47.740;7.606;2023-04-03T03:43:14;3.23;;;2.77;;
7501;SDS011;3792;47.740;7.606;2023-04-03T03:45:41;3.53;;;2.97;;
7501;SDS011;3792;47.740;7.606;2023-04-03T03:48:08;2.83;;;2.63;;
7501;SDS011;3792;47.740;7.606;2023-04-03T03:50:37;2.90;;;2.70;;
7501;SDS011;3792;47.740;7.606;2023-04-03T03:53:04;3.20;;;2.90;;
7501;SDS011;3792;47.740;7.606;2023-04-03T03:55:31;3.30;;;3.00;;
7501;SDS011;3792;47.740;7.606;2023-04-03T03:57:58;3.20;;;2.63;;
7501;SDS011;3792;47.740;7.606;2023-04-03T04:00:26;4.97;;;3.13;;
7501;SDS011;3792;47.740;7.606;2023-04-03T04:02:53;3.30;;;3.00;;
7501;SDS011;3792;47.740;7.606;2023-04-03T04:05:20;3.77;;;3.27;;
7501;SDS011;3792;47.740;7.606;2023-04-03T04:07:49;3.77;;;3.40;;
7501;SDS011;3792;47.740;7.606;2023-04-03T04:10:16;4.20;;;3.80;;
7501;SDS011;3792;47.740;7.606;2023-04-03T04:12:43;3.07;;;2.77;;
7501;SDS011;3792;47.740;7.606;2023-04-03T04:15:10;3.47;;;2.90;;
7501;SDS011;3792;47.740;7.606;2023-04-03T04:17:37;3.37;;;2.90;;
7501;SDS011;3792;47.740;7.606;2023-04-03T04:20:05;4.40;;;3.27;;
7501;SDS011;3792;47.740;7.606;2023-04-03T04:22:33;4.67;;;3.50;;
7501;SDS011;3792;47.740;7.606;2023-04-03T04:25:02;3.17;;;2.87;;
7501;SDS011;3792;47.740;7.606;2023-04-03T04:27:29;4.40;;;3.40;;
7501;SDS011;3792;47.740;7.606;2023-04-03T04:29:56;8.00;;;3.83;;
7501;SDS011;3792;47.740;7.606;2023-04-03T04:32:23;5.87;;;4.10;;
7501;SDS011;3792;47.740;7.606;2023-04-03T04:34:50;10.97;;;4.17;;
7501;SDS011;3792;47.740;7.606;2023-04-03T04:37:17;7.63;;;5.37;;
7501;SDS011;3792;47.740;7.606;2023-04-03T04:39:44;9.23;;;6.10;;
7501;SDS011;3792;47.740;7.606;2023-04-03T04:42:12;6.33;;;4.80;;
7501;SDS011;3792;47.740;7.606;2023-04-03T04:44:40;8.80;;;6.00;;
7501;SDS011;3792;47.740;7.606;2023-04-03T04:47:07;6.67;;;4.70;;
7501;SDS011;3792;47.740;7.606;2023-04-03T04:49:34;3.97;;;3.60;;
7501;SDS011;3792;47.740;7.606;2023-04-03T04:52:01;3.90;;;3.20;;
7501;SDS011;3792;47.740;7.606;2023-04-03T04:54:28;3.93;;;3.37;;
7501;SDS011;3792;47.740;7.606;2023-04-03T04:56:55;4.30;;;3.30;;
7501;SDS011;3792;47.740;7.606;2023-04-03T04:59:23;4.50;;;3.47;;
7501;SDS011;3792;47.740;7.606;2023-04-03T05:01:50;3.93;;;3.40;;
7501;SDS011;3792;47.740;7.606;2023-04-03T05:04:17;4.20;;;3.67;;
7501;SDS011;3792;47.740;7.606;2023-04-03T05:06:44;3.47;;;3.17;;
7501;SDS011;3792;47.740;7.606;2023-04-03T05:09:11;4.07;;;3.67;;
7501;SDS011;3792;47.740;7.606;2023-04-03T05:11:38;3.83;;;3.43;;
7501;SDS011;3792;47.740;7.606;2023-04-03T05:14:05;4.87;;;3.73;;
7501;SDS011;3792;47.740;7.606;2023-04-03T05:16:34;4.10;;;3.67;;
7501;SDS011;3792;47.740;7.606;2023-04-03T05:19:01;4.93;;;3.73;;
7501;SDS011;3792;47.740;7.606;2023-04-03T05:21:28;3.90;;;3.43;;
7501;SDS011;3792;47.740;7.606;2023-04-03T05:23:57;4.03;;;3.63;;
7501;SDS011;3792;47.740;7.606;2023-04-03T05:26:27;4.17;;;3.77;;
7501;SDS011;3792;47.740;7.606;2023-04-03T05:28:55;6.83;;;3.87;;
7501;SDS011;3792;47.740;7.606;2023-04-03T05:31:22;4.30;;;3.47;;
7501;SDS011;3792;47.740;7.606;2023-04-03T05:33:50;4.63;;;4.00;;
7501;SDS011;3792;47.740;7.606;2023-04-03T05:36:17;9.03;;;5.07;;
7501;SDS011;3792;47.740;7.606;2023-04-03T05:38:45;5.90;;;4.13;;
7501;SDS011;3792;47.740;7.606;2023-04-03T05:41:12;6.30;;;4.20;;
7501;SDS011;3792;47.740;7.606;2023-04-03T05:43:39;8.47;;;5.80;;
7501;SDS011;3792;47.740;7.606;2023-04-03T05:46:09;5.07;;;4.23;;
7501;SDS011;3792;47.740;7.606;2023-04-03T05:48:37;8.13;;;5.50;;
7501;SDS011;3792;47.740;7.606;2023-04-03T05:51:06;11.80;;;6.70;;
7501;SDS011;3792;47.740;7.606;2023-04-03T05:53:35;4.43;;;4.00;;
7501;SDS011;3792;47.740;7.606;2023-04-03T05:56:03;4.40;;;4.00;;
7501;SDS011;3792;47.740;7.606;2023-04-03T05:58:30;4.53;;;3.80;;
7501;SDS011;3792;47.740;7.606;2023-04-03T06:00:57;5.73;;;4.37;;
7501;SDS011;3792;47.740;7.606;2023-04-03T06:03:25;5.70;;;4.60;;
7501;SDS011;3792;47.740;7.606;2023-04-03T06:05:52;6.37;;;5.13;;
7501;SDS011;3792;47.740;7.606;2023-04-03T06:08:20;10.03;;;6.23;;
7501;SDS011;3792;47.740;7.606;2023-04-03T06:10:49;7.37;;;5.53;;
7501;SDS011;3792;47.740;7.606;2023-04-03T06:13:17;7.70;;;5.73;;
7501;SDS011;3792;47.740;7.606;2023-04-03T06:15:44;8.07;;;6.30;;
7501;SDS011;3792;47.740;7.606;2023-04-03T06:18:12;10.03;;;7.40;;
7501;SDS011;3792;47.740;7.606;2023-04-03T06:20:39;6.27;;;5.13;;
7501;SDS011;3792;47.740;7.606;2023-04-03T06:23:07;9.30;;;6.90;;
7501;SDS011;3792;47.740;7.606;2023-04-03T06:25:37;9.00;;;6.10;;
7501;SDS011;3792;47.740;7.606;2023-04-03T06:28:04;8.13;;;6.40;;
7501;SDS011;3792;47.740;7.606;2023-04-03T06:30:34;6.37;;;5.60;;
7501;SDS011;3792;47.740;7.606;2023-04-03T06:33:01;9.00;;;8.10;;
7501;SDS011;3792;47.740;7.606;2023-04-03T06:35:29;8.67;;;7.47;;
7501;SDS011;3792;47.740;7.606;2023-04-03T06:37:56;8.33;;;7.43;;
7501;SDS011;3792;47.740;7.606;2023-04-03T06:40:24;10.30;;;7.63;;
7501;SDS011;3792;47.740;7.606;2023-04-03T06:42:53;9.07;;;7.00;;
7501;SDS011;3792;47.740;7.606;2023-04-03T06:45:20;7.40;;;6.60;;
7501;SDS011;3792;47.740;7.606;2023-04-03T06:47:47;9.37;;;8.07;;
7501;SDS011;3792;47.740;7.606;2023-04-03T06:50:15;7.17;;;6.47;;
7501;SDS011;3792;47.740;7.606;2023-04-03T06:52:42;7.60;;;5.50;;
7501;SDS011;3792;47.740;7.606;2023-04-03T06:55:10;6.27;;;5.73;;
7501;SDS011;3792;47.740;7.606;2023-04-03T06:57:37;7.90;;;5.83;;
7501;SDS011;3792;47.740;7.606;2023-04-03T07:00:08;7.03;;;5.33;;
7501;SDS011;3792;47.740;7.606;2023-04-03T07:02:38;7.63;;;5.17;;
7501;SDS011;3792;47.740;7.606;2023-04-03T07:05:06;8.23;;;6.20;;
7501;SDS011;3792;47.740;7.606;2023-04-03T07:07:34;13.87;;;10.33;;
7501;SDS011;3792;47.740;7.606;2023-04-03T07:10:03;9.80;;;7.90;;
7501;SDS011;3792;47.740;7.606;2023-04-03T07:12:31;11.33;;;7.50;;
7501;SDS011;3792;47.740;7.606;2023-04-03T07:14:59;7.20;;;5.83;;
7501;SDS011;3792;47.740;7.606;2023-04-03T07:17:27;7.60;;;4.57;;
7501;SDS011;3792;47.740;7.606;2023-04-03T07:19:54;17.80;;;8.17;;
7501;SDS011;3792;47.740;7.606;2023-04-03T07:22:22;22.00;;;9.80;;
7501;SDS011;3792;47.740;7.606;2023-04-03T07:24:49;20.40;;;8.70;;
7501;SDS011;3792;47.740;7.606;2023-04-03T07:27:16;14.77;;;7.10;;
7501;SDS011;3792;47.740;7.606;2023-04-03T07:29:43;12.10;;;6.90;;
7501;SDS011;3792;47.740;7.606;2023-04-03T07:32:13;11.07;;;5.57;;
7501;SDS011;3792;47.740;7.606;2023-04-03T07:34:42;11.73;;;6.83;;
7501;SDS011;3792;47.740;7.606;2023-04-03T07:37:10;17.83;;;9.90;;
7501;SDS011;3792;47.740;7.606;2023-04-03T07:39:37;19.77;;;8.67;;
7501;SDS011;3792;47.740;7.606;2023-04-03T07:42:05;10.80;;;7.20;;
7501;SDS011;3792;47.740;7.606;2023-04-03T07:44:32;9.30;;;5.43;;
7501;SDS011;3792;47.740;7.606;2023-04-03T07:47:00;6.30;;;5.23;;
7501;SDS011;3792;47.740;7.606;2023-04-03T07:49:27;8.90;;;5.63;;
7501;SDS011;3792;47.740;7.606;2023-04-03T07:51:56;8.00;;;6.07;;
7501;SDS011;3792;47.740;7.606;2023-04-03T07:54:23;7.40;;;5.73;;
7501;SDS011;3792;47.740;7.606;2023-04-03T07:56:50;7.23;;;4.73;;
7501;SDS011;3792;47.740;7.606;2023-04-03T07:59:18;7.73;;;5.27;;
7501;SDS011;3792;47.740;7.606;2023-04-03T08:01:45;5.97;;;4.83;;
7501;SDS011;3792;47.740;7.606;2023-04-03T08:04:12;7.20;;;5.50;;
7501;SDS011;3792;47.740;7.606;2023-04-03T08:06:39;9.60;;;6.23;;
7501;SDS011;3792;47.740;7.606;2023-04-03T08:09:08;6.17;;;4.97;;
7501;SDS011;3792;47.740;7.606;2023-04-03T08:11:35;9.00;;;7.33;;
7501;SDS011;3792;47.740;7.606;2023-04-03T08:14:04;10.43;;;8.10;;
7501;SDS011;3792;47.740;7.606;2023-04-03T08:16:32;11.57;;;7.87;;
7501;SDS011;3792;47.740;7.606;2023-04-03T08:18:59;7.83;;;5.80;;
7501;SDS011;3792;47.740;7.606;2023-04-03T08:21:26;5.70;;;5.10;;
7501;SDS011;3792;47.740;7.606;2023-04-03T08:23:53;8.97;;;6.47;;
7501;SDS011;3792;47.740;7.606;2023-04-03T08:26:22;10.53;;;6.87;;
7501;SDS011;3792;47.740;7.606;2023-04-03T08:28:51;6.07;;;5.13;;
7501;SDS011;3792;47.740;7.606;2023-04-03T08:31:19;6.60;;;4.57;;
7501;SDS011;3792;47.740;7.606;2023-04-03T08:33:46;6.37;;;3.87;;
7501;SDS011;3792;47.740;7.606;2023-04-03T08:36:16;4.97;;;4.30;;
7501;SDS011;3792;47.740;7.606;2023-04-03T08:38:45;5.17;;;3.90;;
7501;SDS011;3792;47.740;7.606;2023-04-03T08:41:14;6.07;;;3.70;;
7501;SDS011;3792;47.740;7.606;2023-04-03T08:43:52;4.30;;;3.90;;
7501;SDS011;3792;47.740;7.606;2023-04-03T08:46:24;5.03;;;4.00;;
7501;SDS011;3792;47.740;7.606;2023-04-03T08:49:03;22.73;;;5.87;;
7501;SDS011;3792;47.740;7.606;2023-04-03T08:51:36;5.07;;;4.00;;
7501;SDS011;3792;47.740;7.606;2023-04-03T08:54:21;5.03;;;4.40;;
7501;SDS011;3792;47.740;7.606;2023-04-03T08:56:53;4.23;;;3.87;;
7501;SDS011;3792;47.740;7.606;2023-04-03T08:59:26;5.43;;;4.17;;
7501;SDS011;3792;47.740;7.606;2023-04-03T09:01:56;4.80;;;3.73;;
7501;SDS011;3792;47.740;7.606;2023-04-03T09:04:27;5.17;;;3.97;;
7501;SDS011;3792;47.740;7.606;2023-04-03T09:07:02;5.63;;;4.30;;
7501;SDS011;3792;47.740;7.606;2023-04-03T09:09:33;4.27;;;3.80;;
7501;SDS011;3792;47.740;7.606;2023-04-03T09:12:10;4.67;;;3.97;;
7501;SDS011;3792;47.740;7.606;2023-04-03T09:14:43;4.63;;;4.23;;
7501;SDS011;3792;47.740;7.606;2023-04-03T09:17:21;4.93;;;4.43;;
7501;SDS011;3792;47.740;7.606;2023-04-03T09:20:02;5.20;;;4.70;;
7501;SDS011;3792;47.740;7.606;2023-04-03T09:22:41;4.70;;;4.20;;
7501;SDS011;3792;47.740;7.606;2023-04-03T09:25:10;8.00;;;4.90;;
7501;SDS011;3792;47.740;7.606;2023-04-03T09:27:41;5.93;;;4.60;;
7501;SDS011;3792;47.740;7.606;2023-04-03T09:30:13;4.63;;;4.20;;
7501;SDS011;3792;47.740;7.606;2023-04-03T09:32:44;6.10;;;4.90;;
7501;SDS011;3792;47.740;7.606;2023-04-03T09:35:16;4.50;;;4.17;;
7501;SDS011;3792;47.740;7.606;2023-04-03T09:37:48;5.07;;;4.63;;
7501;SDS011;3792;47.740;7.606;2023-04-03T09:40:28;5.07;;;4.13;;
7501;SDS011;3792;47.740;7.606;2023-04-03T09:43:00;4.83;;;4.43;;
7501;SDS011;3792;47.740;7.606;2023-04-03T09:45:31;4.43;;;4.00;;
7501;SDS011;3792;47.740;7.606;2023-04-03T09:48:04;4.40;;;3.67;;
7501;SDS011;3792;47.740;7.606;2023-04-03T09:50:33;4.33;;;3.93;;
7501;SDS011;3792;47.740;7.606;2023-04-03T09:53:04;5.63;;;3.93;;
7501;SDS011;3792;47.740;7.606;2023-04-03T09:55:33;3.93;;;3.53;;
7501;SDS011;3792;47.740;7.606;2023-04-03T09:58:22;4.87;;;3.73;;
7501;SDS011;3792;47.740;7.606;2023-04-03T10:00:56;5.47;;;3.77;;
7501;SDS011;3792;47.740;7.606;2023-04-03T10:03:27;4.10;;;3.80;;
7501;SDS011;3792;47.740;7.606;2023-04-03T10:06:00;3.80;;;3.50;;
7501;SDS011;3792;47.740;7.606;2023-04-03T10:08:33;4.40;;;4.00;;
7501;SDS011;3792;47.740;7.606;2023-04-03T10:11:05;4.17;;;3.77;;
7501;SDS011;3792;47.740;7.606;2023-04-03T10:13:35;4.33;;;3.67;;
7501;SDS011;3792;47.740;7.606;2023-04-03T10:16:06;4.13;;;3.63;;
7501;SDS011;3792;47.740;7.606;2023-04-03T10:18:38;6.00;;;4.47;;
7501;SDS011;3792;47.740;7.606;2023-04-03T10:21:13;5.97;;;4.87;;
7501;SDS011;3792;47.740;7.606;2023-04-03T10:23:48;4.77;;;4.30;;
7501;SDS011;3792;47.740;7.606;2023-04-03T10:26:23;4.93;;;4.53;;
7501;SDS011;3792;47.740;7.606;2023-04-03T10:28:57;4.53;;;4.03;;
7501;SDS011;3792;47.740;7.606;2023-04-03T10:31:31;4.50;;;4.10;;
7501;SDS011;3792;47.740;7.606;2023-04-03T10:34:03;4.40;;;3.57;;
7501;SDS011;3792;47.740;7.606;2023-04-03T10:36:37;5.90;;;4.63;;
7501;SDS011;3792;47.740;7.606;2023-04-03T10:39:15;4.40;;;4.00;;
7501;SDS011;3792;47.740;7.606;2023-04-03T10:41:56;5.00;;;4.27;;
7501;SDS011;3792;47.740;7.606;2023-04-03T10:44:31;4.83;;;3.90;;
7501;SDS011;3792;47.740;7.606;2023-04-03T10:47:08;5.33;;;3.60;;
7501;SDS011;3792;47.740;7.606;2023-04-03T10:49:42;3.40;;;3.10;;
7501;SDS011;3792;47.740;7.606;2023-04-03T10:52:18;3.03;;;2.73;;
7501;SDS011;3792;47.740;7.606;2023-04-03T10:54:54;3.53;;;3.23;;
7501;SDS011;3792;47.740;7.606;2023-04-03T10:57:27;3.23;;;2.93;;
7501;SDS011;3792;47.740;7.606;2023-04-03T10:59:56;3.63;;;3.10;;
7501;SDS011;3792;47.740;7.606;2023-04-03T11:02:29;3.47;;;3.17;;
7501;SDS011;3792;47.740;7.606;2023-04-03T11:04:59;3.40;;;3.10;;
7501;SDS011;3792;47.740;7.606;2023-04-03T11:07:32;3.07;;;2.83;;
7501;SDS011;3792;47.740;7.606;2023-04-03T11:10:05;3.43;;;3.13;;
7501;SDS011;3792;47.740;7.606;2023-04-03T11:12:41;3.73;;;3.43;;
7501;SDS011;3792;47.740;7.606;2023-04-03T11:17:41;3.23;;;3.00;;
7501;SDS011;3792;47.740;7.606;2023-04-03T11:20:16;4.67;;;2.70;;
7501;SDS011;3792;47.740;7.606;2023-04-03T11:22:53;2.40;;;2.20;;
7501;SDS011;3792;47.740;7.606;2023-04-03T11:25:25;2.30;;;2.20;;
7501;SDS011;3792;47.740;7.606;2023-04-03T11:27:56;2.40;;;2.20;;
7501;SDS011;3792;47.740;7.606;2023-04-03T11:30:25;2.67;;;2.47;;
7501;SDS011;3792;47.740;7.606;2023-04-03T11:33:02;3.10;;;2.90;;
7501;SDS011;3792;47.740;7.606;2023-04-03T11:35:45;3.77;;;2.60;;
7501;SDS011;3792;47.740;7.606;2023-04-03T11:38:17;3.03;;;2.77;;
7501;SDS011;3792;47.740;7.606;2023-04-03T11:40:49;6.37;;;3.03;;
7501;SDS011;3792;47.740;7.606;2023-04-03T11:43:21;2.63;;;2.43;;
7501;SDS011;3792;47.740;7.606;2023-04-03T11:45:52;3.20;;;2.90;;
7501;SDS011;3792;47.740;7.606;2023-04-03T11:57:12;3.07;;;2.70;;
7501;SDS011;3792;47.740;7.606;2023-04-03T12:03:32;2.50;;;2.30;;
7501;SDS011;3792;47.740;7.606;2023-04-03T12:09:26;3.17;;;2.80;;
7501;SDS011;3792;47.740;7.606;2023-04-03T12:11:59;2.80;;;2.60;;
7501;SDS011;3792;47.740;7.606;2023-04-03T12:14:28;2.80;;;2.10;;
7501;SDS011;3792;47.740;7.606;2023-04-03T12:16:55;2.20;;;1.87;;
7501;SDS011;3792;47.740;7.606;2023-04-03T12:22:16;1.97;;;1.87;;
7501;SDS011;3792;47.740;7.606;2023-04-03T12:24:46;2.00;;;1.90;;
7501;SDS011;3792;47.740;7.606;2023-04-03T12:27:20;3.60;;;2.50;;
7501;SDS011;3792;47.740;7.606;2023-04-03T12:29:59;3.07;;;2.87;;
7501;SDS011;3792;47.740;7.606;2023-04-03T12:32:40;2.63;;;2.17;;
7501;SDS011;3792;47.740;7.606;2023-04-03T12:35:17;2.00;;;1.90;;
7501;SDS011;3792;47.740;7.606;2023-04-03T12:37:54;2.13;;;2.00;;
7501;SDS011;3792;47.740;7.606;2023-04-03T12:40:42;2.57;;;2.30;;
7501;SDS011;3792;47.740;7.606;2023-04-03T12:43:21;2.33;;;2.13;;
7501;SDS011;3792;47.740;7.606;2023-04-03T12:46:02;2.47;;;2.27;;
7501;SDS011;3792;47.740;7.606;2023-04-03T12:48:31;2.73;;;2.53;;
7501;SDS011;3792;47.740;7.606;2023-04-03T12:51:04;5.17;;;4.63;;
7501;SDS011;3792;47.740;7.606;2023-04-03T12:53:34;2.53;;;2.37;;
7501;SDS011;3792;47.740;7.606;2023-04-03T12:56:19;2.20;;;2.10;;
7501;SDS011;3792;47.740;7.606;2023-04-03T12:58:48;5.37;;;2.33;;
7501;SDS011;3792;47.740;7.606;2023-04-03T13:01:17;2.00;;;1.90;;
7501;SDS011;3792;47.740;7.606;2023-04-03T13:03:50;1.93;;;1.83;;
7501;SDS011;3792;47.740;7.606;2023-04-03T13:06:22;2.40;;;1.90;;
7501;SDS011;3792;47.740;7.606;2023-04-03T13:08:54;2.67;;;1.87;;
7501;SDS011;3792;47.740;7.606;2023-04-03T13:11:23;3.60;;;3.00;;
7501;SDS011;3792;47.740;7.606;2023-04-03T13:13:56;2.90;;;2.50;;
7501;SDS011;3792;47.740;7.606;2023-04-03T13:16:24;3.67;;;1.90;;
7501;SDS011;3792;47.740;7.606;2023-04-03T13:18:51;1.97;;;1.87;;
7501;SDS011;3792;47.740;7.606;2023-04-03T13:21:20;2.63;;;1.70;;
7501;SDS011;3792;47.740;7.606;2023-04-03T13:23:50;3.73;;;2.30;;
7501;SDS011;3792;47.740;7.606;2023-04-03T13:26:22;4.90;;;2.30;;
7501;SDS011;3792;47.740;7.606;2023-04-03T13:28:51;4.67;;;2.83;;
7501;SDS011;3792;47.740;7.606;2023-04-03T13:31:20;2.27;;;2.10;;
7501;SDS011;3792;47.740;7.606;2023-04-03T13:33:54;2.10;;;2.00;;
7501;SDS011;3792;47.740;7.606;2023-04-03T13:36:24;1.97;;;1.80;;
7501;SDS011;3792;47.740;7.606;2023-04-03T13:39:00;1.90;;;1.77;;
7501;SDS011;3792;47.740;7.606;2023-04-03T13:41:34;3.13;;;2.07;;
7501;SDS011;3792;47.740;7.606;2023-04-03T13:44:16;2.30;;;1.70;;
7501;SDS011;3792;47.740;7.606;2023-04-03T13:46:58;2.37;;;1.70;;
7501;SDS011;3792;47.740;7.606;2023-04-03T13:49:31;1.80;;;1.70;;
7501;SDS011;3792;47.740;7.606;2023-04-03T13:52:01;6.50;;;3.23;;
7501;SDS011;3792;47.740;7.606;2023-04-03T13:54:32;8.87;;;2.70;;
7501;SDS011;3792;47.740;7.606;2023-04-03T13:57:01;4.10;;;1.80;;
7501;SDS011;3792;47.740;7.606;2023-04-03T13:59:29;2.47;;;2.27;;
7501;SDS011;3792;47.740;7.606;2023-04-03T14:02:09;3.60;;;2.70;;
7501;SDS011;3792;47.740;7.606;2023-04-03T14:04:48;5.50;;;3.43;;
7501;SDS011;3792;47.740;7.606;2023-04-03T14:07:23;2.80;;;2.50;;
7501;SDS011;3792;47.740;7.606;2023-04-03T14:09:52;1.77;;;1.67;;
7501;SDS011;3792;47.740;7.606;2023-04-03T14:12:21;4.77;;;3.03;;
7501;SDS011;3792;47.740;7.606;2023-04-03T14:14:52;3.33;;;2.80;;
7501;SDS011;3792;47.740;7.606;2023-04-03T14:17:21;3.97;;;2.30;;
7501;SDS011;3792;47.740;7.606;2023-04-03T14:19:50;4.67;;;3.20;;
7501;SDS011;3792;47.740;7.606;2023-04-03T14:22:19;7.97;;;4.47;;
7501;SDS011;3792;47.740;7.606;2023-04-03T14:24:48;2.30;;;2.13;;
7501;SDS011;3792;47.740;7.606;2023-04-03T14:27:19;7.37;;;3.97;;
7501;SDS011;3792;47.740;7.606;2023-04-03T14:29:47;3.93;;;3.00;;
7501;SDS011;3792;47.740;7.606;2023-04-03T14:32:17;2.93;;;2.60;;
7501;SDS011;3792;47.740;7.606;2023-04-03T14:34:45;2.90;;;1.87;;
7501;SDS011;3792;47.740;7.606;2023-04-03T14:37:15;2.53;;;2.07;;
7501;SDS011;3792;47.740;7.606;2023-04-03T14:39:44;2.47;;;2.17;;
7501;SDS011;3792;47.740;7.606;2023-04-03T14:42:12;2.10;;;1.90;;
7501;SDS011;3792;47.740;7.606;2023-04-03T14:44:42;2.40;;;2.20;;
7501;SDS011;3792;47.740;7.606;2023-04-03T14:47:10;3.00;;;2.43;;
7501;SDS011;3792;47.740;7.606;2023-04-03T14:49:38;1.80;;;1.70;;
7501;SDS011;3792;47.740;7.606;2023-04-03T14:52:05;1.73;;;1.60;;
7501;SDS011;3792;47.740;7.606;2023-04-03T14:54:42;1.80;;;1.70;;
7501;SDS011;3792;47.740;7.606;2023-04-03T14:57:09;2.17;;;1.97;;
7501;SDS011;3792;47.740;7.606;2023-04-03T14:59:39;2.10;;;2.00;;
7501;SDS011;3792;47.740;7.606;2023-04-03T15:02:12;1.90;;;1.80;;
7501;SDS011;3792;47.740;7.606;2023-04-03T15:04:53;2.27;;;2.10;;
7501;SDS011;3792;47.740;7.606;2023-04-03T15:07:20;2.43;;;1.93;;
7501;SDS011;3792;47.740;7.606;2023-04-03T15:09:47;2.40;;;2.20;;
7501;SDS011;3792;47.740;7.606;2023-04-03T15:12:15;2.33;;;2.10;;
7501;SDS011;3792;47.740;7.606;2023-04-03T15:14:42;2.33;;;2.13;;
7501;SDS011;3792;47.740;7.606;2023-04-03T15:17:15;2.27;;;2.10;;
7501;SDS011;3792;47.740;7.606;2023-04-03T15:19:44;2.60;;;2.13;;
7501;SDS011;3792;47.740;7.606;2023-04-03T15:22:13;3.83;;;2.03;;
7501;SDS011;3792;47.740;7.606;2023-04-03T15:24:41;3.47;;;1.97;;
7501;SDS011;3792;47.740;7.606;2023-04-03T15:27:09;4.60;;;2.20;;
7501;SDS011;3792;47.740;7.606;2023-04-03T15:29:37;2.60;;;2.40;;
7501;SDS011;3792;47.740;7.606;2023-04-03T15:32:06;2.23;;;2.00;;
7501;SDS011;3792;47.740;7.606;2023-04-03T15:34:35;3.20;;;1.93;;
7501;SDS011;3792;47.740;7.606;2023-04-03T15:37:02;2.47;;;2.27;;
7501;SDS011;3792;47.740;7.606;2023-04-03T15:39:30;2.30;;;2.17;;
7501;SDS011;3792;47.740;7.606;2023-04-03T15:41:58;2.20;;;2.00;;
7501;SDS011;3792;47.740;7.606;2023-04-03T15:44:31;2.67;;;2.40;;
7501;SDS011;3792;47.740;7.606;2023-04-03T15:46:59;2.83;;;2.40;;
7501;SDS011;3792;47.740;7.606;2023-04-03T15:49:28;3.77;;;1.97;;
7501;SDS011;3792;47.740;7.606;2023-04-03T15:51:57;3.83;;;2.87;;